sensor_id;sensor_type;location;lat;lon;timestamp;pressure;altitude;pressure_sealevel;temperature;humidity
9249;BME280;4660;41.768;26.198;2023-03-03T00:02:06;101180.34;;;7.32;100.00
9249;BME280;4660;41.768;26.198;2023-03-03T00:04:32;101179.38;;;7.33;100.00
9249;BME280;4660;41.768;26.198;2023-03-03T00:06:59;101180.03;;;7.36;100.00
9249;BME280;4660;41.768;26.198;2023-03-03T00:09:26;101176.63;;;7.22;100.00
9249;BME280;4660;41.768;26.198;2023-03-03T00:11:56;101168.91;;;7.17;100.00
9249;BME280;4660;41.768;26.198;2023-03-03T00:14:29;101141.31;;;6.91;100.00
9249;BME280;4660;41.768;26.198;2023-03-03T00:17:00;101165.50;;;7.15;100.00
9249;BME280;4660;41.768;26.198;2023-03-03T00:19:37;101166.97;;;7.32;100.00
9249;BME280;4660;41.768;26.198;2023-03-03T00:22:15;101153.53;;;7.08;100.00
9249;BME280;4660;41.768;26.198;2023-03-03T00:24:49;101143.75;;;7.07;100.00
9249;BME280;4660;41.768;26.198;2023-03-03T00:27:29;101155.72;;;7.39;100.00
9249;BME280;4660;41.768;26.198;2023-03-03T00:30:01;101166.69;;;7.60;100.00
9249;BME280;4660;41.768;26.198;2023-03-03T00:32:46;101158.53;;;7.62;100.00
9249;BME280;4660;41.768;26.198;2023-03-03T00:35:32;101160.03;;;7.66;100.00
9249;BME280;4660;41.768;26.198;2023-03-03T00:38:19;101153.41;;;7.71;100.00
9249;BME280;4660;41.768;26.198;2023-03-03T00:40:47;101155.34;;;7.57;100.00
9249;BME280;4660;41.768;26.198;2023-03-03T00:43:27;101137.28;;;7.48;100.00
9249;BME280;4660;41.768;26.198;2023-03-03T00:45:58;101149.06;;;7.45;100.00
9249;BME280;4660;41.768;26.198;2023-03-03T00:51:29;101153.84;;;7.65;100.00
9249;BME280;4660;41.768;26.198;2023-03-03T00:53:58;101152.19;;;7.76;100.00
9249;BME280;4660;41.768;26.198;2023-03-03T00:56:25;101140.06;;;7.83;100.00
9249;BME280;4660;41.768;26.198;2023-03-03T00:58:53;101147.50;;;7.90;100.00
9249;BME280;4660;41.768;26.198;2023-03-03T01:01:20;101143.53;;;7.96;100.00
9249;BME280;4660;41.768;26.198;2023-03-03T01:03:48;101133.38;;;7.88;100.00
9249;BME280;4660;41.768;26.198;2023-03-03T01:06:14;101127.25;;;7.62;100.00
9249;BME280;4660;41.768;26.198;2023-03-03T01:08:43;101127.50;;;7.59;100.00
9249;BME280;4660;41.768;26.198;2023-03-03T01:11:14;101100.66;;;7.48;100.00
9249;BME280;4660;41.768;26.198;2023-03-03T01:13:44;101119.34;;;7.61;100.00
9249;BME280;4660;41.768;26.198;2023-03-03T01:16:14;101117.06;;;7.67;100.00
9249;BME280;4660;41.768;26.198;2023-03-03T01:18:41;101117.56;;;7.49;100.00
9249;BME280;4660;41.768;26.198;2023-03-03T01:21:09;101118.41;;;7.49;100.00
9249;BME280;4660;41.768;26.198;2023-03-03T01:23:37;101119.19;;;7.51;100.00
9249;BME280;4660;41.768;26.198;2023-03-03T01:26:05;101100.53;;;7.50;100.00
9249;BME280;4660;41.768;26.198;2023-03-03T01:28:33;101104.31;;;7.71;100.00
9249;BME280;4660;41.768;26.198;2023-03-03T01:31:01;101109.66;;;7.71;100.00
9249;BME280;4660;41.768;26.198;2023-03-03T01:33:28;101113.09;;;7.73;100.00
9249;BME280;4660;41.768;26.198;2023-03-03T01:35:54;101095.09;;;7.75;100.00
9249;BME280;4660;41.768;26.198;2023-03-03T01:38:19;101118.94;;;7.54;100.00
9249;BME280;4660;41.768;26.198;2023-03-03T01:40:55;101116.38;;;7.53;100.00
9249;BME280;4660;41.768;26.198;2023-03-03T01:43:26;101115.75;;;7.49;100.00
9249;BME280;4660;41.768;26.198;2023-03-03T01:48:44;101117.66;;;7.84;100.00
9249;BME280;4660;41.768;26.198;2023-03-03T01:54:41;101113.22;;;7.95;100.00
9249;BME280;4660;41.768;26.198;2023-03-03T01:57:15;101114.75;;;7.87;100.00
9249;BME280;4660;41.768;26.198;2023-03-03T01:59:46;101119.47;;;7.83;100.00
9249;BME280;4660;41.768;26.198;2023-03-03T02:02:15;101116.75;;;7.72;100.00
9249;BME280;4660;41.768;26.198;2023-03-03T02:04:42;101118.22;;;7.76;100.00
9249;BME280;4660;41.768;26.198;2023-03-03T02:07:09;101109.66;;;7.71;100.00
9249;BME280;4660;41.768;26.198;2023-03-03T02:12:48;101112.75;;;7.78;100.00
9249;BME280;4660;41.768;26.198;2023-03-03T02:15:34;101116.75;;;7.72;100.00
9249;BME280;4660;41.768;26.198;2023-03-03T02:18:14;101118.22;;;7.76;100.00
9249;BME280;4660;41.768;26.198;2023-03-03T02:21:06;101115.81;;;7.84;100.00
9249;BME280;4660;41.768;26.198;2023-03-03T02:24:34;101087.63;;;7.67;100.00
9249;BME280;4660;41.768;26.198;2023-03-03T02:26:53;101112.69;;;7.66;100.00
9249;BME280;4660;41.768;26.198;2023-03-03T02:29:18;101111.66;;;7.56;100.00
9249;BME280;4660;41.768;26.198;2023-03-03T02:31:45;101109.72;;;7.58;100.00
9249;BME280;4660;41.768;26.198;2023-03-03T02:34:12;101114.28;;;7.69;100.00
9249;BME280;4660;41.768;26.198;2023-03-03T02:36:39;101114.56;;;7.77;100.00
9249;BME280;4660;41.768;26.198;2023-03-03T02:39:25;101115.22;;;7.81;100.00
9249;BME280;4660;41.768;26.198;2023-03-03T02:42:22;101118.66;;;7.70;100.00
9249;BME280;4660;41.768;26.198;2023-03-03T02:44:52;101122.31;;;7.69;100.00
9249;BME280;4660;41.768;26.198;2023-03-03T02:47:18;101117.97;;;7.55;100.00
9249;BME280;4660;41.768;26.198;2023-03-03T02:49:46;101118.66;;;7.70;100.00
9249;BME280;4660;41.768;26.198;2023-03-03T02:52:11;101104.47;;;7.57;100.00
9249;BME280;4660;41.768;26.198;2023-03-03T02:54:41;101112.50;;;7.57;100.00
9249;BME280;4660;41.768;26.198;2023-03-03T02:57:08;101110.59;;;7.59;100.00
9249;BME280;4660;41.768;26.198;2023-03-03T02:59:34;101099.19;;;7.68;100.00
9249;BME280;4660;41.768;26.198;2023-03-03T03:02:02;101102.03;;;7.54;100.00
9249;BME280;4660;41.768;26.198;2023-03-03T03:04:29;101069.75;;;7.31;100.00
9249;BME280;4660;41.768;26.198;2023-03-03T03:06:56;101094.59;;;7.33;100.00
9249;BME280;4660;41.768;26.198;2023-03-03T03:09:24;101106.56;;;7.40;100.00
9249;BME280;4660;41.768;26.198;2023-03-03T03:11:51;101071.34;;;6.97;100.00
9249;BME280;4660;41.768;26.198;2023-03-03T03:14:18;101107.13;;;7.20;100.00
9249;BME280;4660;41.768;26.198;2023-03-03T03:16:45;101108.09;;;7.19;100.00
9249;BME280;4660;41.768;26.198;2023-03-03T03:19:13;101106.63;;;7.15;100.00
9249;BME280;4660;41.768;26.198;2023-03-03T03:21:40;101108.09;;;7.19;100.00
9249;BME280;4660;41.768;26.198;2023-03-03T03:24:06;101100.38;;;7.27;100.00
9249;BME280;4660;41.768;26.198;2023-03-03T03:26:33;101099.25;;;7.42;100.00
9249;BME280;4660;41.768;26.198;2023-03-03T03:29:03;101100.53;;;7.50;100.00
9249;BME280;4660;41.768;26.198;2023-03-03T03:31:32;101101.84;;;7.44;100.00
9249;BME280;4660;41.768;26.198;2023-03-03T03:33:59;101097.38;;;7.32;100.00
9249;BME280;4660;41.768;26.198;2023-03-03T03:36:26;101095.25;;;7.24;100.00
9249;BME280;4660;41.768;26.198;2023-03-03T03:38:54;101092.47;;;7.26;100.00
9249;BME280;4660;41.768;26.198;2023-03-03T03:41:19;101085.69;;;7.33;100.00
9249;BME280;4660;41.768;26.198;2023-03-03T03:43:46;101092.16;;;7.30;100.00
9249;BME280;4660;41.768;26.198;2023-03-03T03:46:13;101092.69;;;7.23;100.00
9249;BME280;4660;41.768;26.198;2023-03-03T03:48:39;101084.75;;;7.21;100.00
9249;BME280;4660;41.768;26.198;2023-03-03T03:51:06;101079.34;;;7.47;100.00
9249;BME280;4660;41.768;26.198;2023-03-03T03:53:33;101087.34;;;7.23;100.00
9249;BME280;4660;41.768;26.198;2023-03-03T03:56:00;101089.91;;;7.24;100.00
9249;BME280;4660;41.768;26.198;2023-03-03T03:58:30;101087.50;;;7.45;100.00
9249;BME280;4660;41.768;26.198;2023-03-03T04:01:02;101088.91;;;7.62;100.00
9249;BME280;4660;41.768;26.198;2023-03-03T04:03:33;101090.91;;;7.47;100.00
9249;BME280;4660;41.768;26.198;2023-03-03T04:05:59;101088.19;;;7.36;100.00
9249;BME280;4660;41.768;26.198;2023-03-03T04:08:26;101089.16;;;7.22;100.00
9249;BME280;4660;41.768;26.198;2023-03-03T04:10:56;101061.06;;;7.04;100.00
9249;BME280;4660;41.768;26.198;2023-03-03T04:13:23;101077.94;;;7.04;100.00
9249;BME280;4660;41.768;26.198;2023-03-03T04:15:50;101074.94;;;7.22;100.00
9249;BME280;4660;41.768;26.198;2023-03-03T04:18:18;101080.06;;;7.25;100.00
9249;BME280;4660;41.768;26.198;2023-03-03T04:20:44;101072.56;;;7.30;100.00
9249;BME280;4660;41.768;26.198;2023-03-03T04:23:10;101080.50;;;7.18;100.00
9249;BME280;4660;41.768;26.198;2023-03-03T04:25:37;101080.69;;;7.28;100.00
9249;BME280;4660;41.768;26.198;2023-03-03T04:28:03;101077.22;;;7.39;100.00
9249;BME280;4660;41.768;26.198;2023-03-03T04:30:33;101060.22;;;7.27;100.00
9249;BME280;4660;41.768;26.198;2023-03-03T04:33:00;101071.91;;;7.26;100.00
9249;BME280;4660;41.768;26.198;2023-03-03T04:35:27;101086.84;;;7.41;100.00
9249;BME280;4660;41.768;26.198;2023-03-03T04:37:52;101096.94;;;7.38;100.00
9249;BME280;4660;41.768;26.198;2023-03-03T04:40:19;101092.69;;;7.59;100.00
9249;BME280;4660;41.768;26.198;2023-03-03T04:42:46;101089.09;;;7.48;100.00
9249;BME280;4660;41.768;26.198;2023-03-03T04:45:13;101089.81;;;7.50;100.00
9249;BME280;4660;41.768;26.198;2023-03-03T04:47:39;101092.41;;;7.51;100.00
9249;BME280;4660;41.768;26.198;2023-03-03T04:50:06;101098.09;;;7.70;100.00
9249;BME280;4660;41.768;26.198;2023-03-03T04:52:35;101098.28;;;7.80;100.00
9249;BME280;4660;41.768;26.198;2023-03-03T04:55:03;101098.03;;;7.83;100.00
9249;BME280;4660;41.768;26.198;2023-03-03T04:57:30;101098.63;;;7.76;100.00
9249;BME280;4660;41.768;26.198;2023-03-03T04:59:57;101092.75;;;7.70;100.00
9249;BME280;4660;41.768;26.198;2023-03-03T05:02:24;101101.28;;;7.76;100.00
9249;BME280;4660;41.768;26.198;2023-03-03T05:04:51;101104.31;;;7.71;100.00
9249;BME280;4660;41.768;26.198;2023-03-03T05:07:20;101079.31;;;7.59;100.00
9249;BME280;4660;41.768;26.198;2023-03-03T05:09:47;101097.06;;;7.60;100.00
9249;BME280;4660;41.768;26.198;2023-03-03T05:12:15;101094.31;;;7.49;100.00
9249;BME280;4660;41.768;26.198;2023-03-03T05:14:43;101073.19;;;7.33;100.00
9249;BME280;4660;41.768;26.198;2023-03-03T05:17:10;101075.13;;;7.31;100.00
9249;BME280;4660;41.768;26.198;2023-03-03T05:19:37;101089.66;;;7.27;100.00
9249;BME280;4660;41.768;26.198;2023-03-03T05:22:03;101079.25;;;7.35;100.00
9249;BME280;4660;41.768;26.198;2023-03-03T05:24:29;101056.44;;;7.42;100.00
9249;BME280;4660;41.768;26.198;2023-03-03T05:26:56;101086.53;;;7.70;100.00
9249;BME280;4660;41.768;26.198;2023-03-03T05:29:23;101075.94;;;7.44;100.00
9249;BME280;4660;41.768;26.198;2023-03-03T05:31:50;101076.59;;;7.35;100.00
9249;BME280;4660;41.768;26.198;2023-03-03T05:34:17;101087.53;;;7.32;100.00
9249;BME280;4660;41.768;26.198;2023-03-03T05:36:45;101085.03;;;7.42;100.00
9249;BME280;4660;41.768;26.198;2023-03-03T05:39:10;101087.94;;;7.39;100.00
9249;BME280;4660;41.768;26.198;2023-03-03T05:41:38;101090.22;;;7.32;100.00
9249;BME280;4660;41.768;26.198;2023-03-03T05:44:05;101099.94;;;7.33;100.00
9249;BME280;4660;41.768;26.198;2023-03-03T05:46:32;101102.19;;;7.39;100.00
9249;BME280;4660;41.768;26.198;2023-03-03T05:49:00;101105.88;;;7.50;100.00
9249;BME280;4660;41.768;26.198;2023-03-03T05:51:25;101099.09;;;7.57;100.00
9249;BME280;4660;41.768;26.198;2023-03-03T05:53:52;101104.31;;;7.71;100.00
9249;BME280;4660;41.768;26.198;2023-03-03T05:56:19;101100.84;;;7.82;100.00
9249;BME280;4660;41.768;26.198;2023-03-03T05:58:46;101082.56;;;7.52;100.00
9249;BME280;4660;41.768;26.198;2023-03-03T06:01:13;101093.91;;;7.42;100.00
9249;BME280;4660;41.768;26.198;2023-03-03T06:03:40;101088.97;;;7.49;100.00
9249;BME280;4660;41.768;26.198;2023-03-03T06:06:07;101082.19;;;7.32;100.00
9249;BME280;4660;41.768;26.198;2023-03-03T06:08:35;101075.69;;;7.24;100.00
9249;BME280;4660;41.768;26.198;2023-03-03T06:11:02;101072.66;;;7.28;100.00
9249;BME280;4660;41.768;26.198;2023-03-03T06:13:29;101090.94;;;7.34;100.00
9249;BME280;4660;41.768;26.198;2023-03-03T06:15:55;101093.91;;;7.42;100.00
9249;BME280;4660;41.768;26.198;2023-03-03T06:18:23;101083.88;;;7.33;100.00
9249;BME280;4660;41.768;26.198;2023-03-03T06:20:53;101082.75;;;7.49;100.00
9249;BME280;4660;41.768;26.198;2023-03-03T06:23:21;101098.75;;;7.74;100.00
9249;BME280;4660;41.768;26.198;2023-03-03T06:25:48;101094.63;;;7.81;100.00
9249;BME280;4660;41.768;26.198;2023-03-03T06:28:15;101089.13;;;7.71;100.00
9249;BME280;4660;41.768;26.198;2023-03-03T06:30:41;101092.16;;;7.78;100.00
9249;BME280;4660;41.768;26.198;2023-03-03T06:33:08;101109.31;;;7.99;100.00
9249;BME280;4660;41.768;26.198;2023-03-03T06:35:37;101101.00;;;7.91;100.00
9249;BME280;4660;41.768;26.198;2023-03-03T06:38:04;101101.19;;;7.77;100.00
9249;BME280;4660;41.768;26.198;2023-03-03T06:40:31;101117.47;;;7.74;100.00
9249;BME280;4660;41.768;26.198;2023-03-03T06:42:58;101089.03;;;7.60;100.00
9249;BME280;4660;41.768;26.198;2023-03-03T06:45:28;101107.91;;;7.83;100.00
9249;BME280;4660;41.768;26.198;2023-03-03T06:47:55;101099.13;;;7.81;100.00
9249;BME280;4660;41.768;26.198;2023-03-03T06:50:22;101103.69;;;7.91;100.00
9249;BME280;4660;41.768;26.198;2023-03-03T06:53:14;101098.94;;;8.19;100.00
9249;BME280;4660;41.768;26.198;2023-03-03T06:55:41;101110.03;;;8.25;100.00
9249;BME280;4660;41.768;26.198;2023-03-03T06:58:20;101103.88;;;8.12;100.00
9249;BME280;4660;41.768;26.198;2023-03-03T07:00:56;101116.44;;;8.12;100.00
9249;BME280;4660;41.768;26.198;2023-03-03T07:03:25;101112.00;;;8.23;100.00
9249;BME280;4660;41.768;26.198;2023-03-03T07:05:56;101106.75;;;8.22;100.00
9249;BME280;4660;41.768;26.198;2023-03-03T07:08:29;101077.56;;;8.06;100.00
9249;BME280;4660;41.768;26.198;2023-03-03T07:11:00;101099.88;;;8.42;100.00
9249;BME280;4660;41.768;26.198;2023-03-03T07:13:35;101092.47;;;8.45;100.00
9249;BME280;4660;41.768;26.198;2023-03-03T07:16:13;101103.19;;;8.57;100.00
9249;BME280;4660;41.768;26.198;2023-03-03T07:18:56;101096.97;;;8.56;100.00
9249;BME280;4660;41.768;26.198;2023-03-03T07:21:35;101099.06;;;8.64;100.00
9249;BME280;4660;41.768;26.198;2023-03-03T07:24:37;101106.50;;;8.60;100.00
9249;BME280;4660;41.768;26.198;2023-03-03T07:27:24;101097.50;;;8.26;100.00
9249;BME280;4660;41.768;26.198;2023-03-03T07:29:53;101102.72;;;8.27;100.00
9249;BME280;4660;41.768;26.198;2023-03-03T07:32:44;101097.44;;;8.50;100.00
9249;BME280;4660;41.768;26.198;2023-03-03T07:35:37;101097.44;;;8.50;100.00
9249;BME280;4660;41.768;26.198;2023-03-03T07:38:46;101098.59;;;8.70;100.00
9249;BME280;4660;41.768;26.198;2023-03-03T07:41:17;101096.28;;;8.65;100.00
9249;BME280;4660;41.768;26.198;2023-03-03T07:46:43;101098.22;;;8.86;100.00
9249;BME280;4660;41.768;26.198;2023-03-03T07:49:34;101096.19;;;8.89;100.00
9249;BME280;4660;41.768;26.198;2023-03-03T07:52:23;101097.41;;;9.07;100.00
9249;BME280;4660;41.768;26.198;2023-03-03T07:54:51;101084.09;;;8.83;100.00
9249;BME280;4660;41.768;26.198;2023-03-03T07:57:34;101082.66;;;8.79;100.00
9249;BME280;4660;41.768;26.198;2023-03-03T08:03:19;101056.38;;;8.38;100.00
9249;BME280;4660;41.768;26.198;2023-03-03T08:05:49;101078.25;;;8.67;100.00
9249;BME280;4660;41.768;26.198;2023-03-03T08:08:33;101075.78;;;8.53;100.00
9249;BME280;4660;41.768;26.198;2023-03-03T08:11:03;101049.72;;;8.66;100.00
9249;BME280;4660;41.768;26.198;2023-03-03T08:13:39;101063.88;;;8.79;100.00
9249;BME280;4660;41.768;26.198;2023-03-03T08:16:20;101084.09;;;9.06;100.00
9249;BME280;4660;41.768;26.198;2023-03-03T08:19:19;101082.03;;;8.76;100.00
9249;BME280;4660;41.768;26.198;2023-03-03T08:21:50;101073.63;;;8.80;100.00
9249;BME280;4660;41.768;26.198;2023-03-03T08:24:18;101074.84;;;8.88;100.00
9249;BME280;4660;41.768;26.198;2023-03-03T08:26:44;101078.88;;;8.93;100.00
9249;BME280;4660;41.768;26.198;2023-03-03T08:29:11;101080.56;;;8.72;100.00
9249;BME280;4660;41.768;26.198;2023-03-03T08:31:39;101073.97;;;8.65;100.00
9249;BME280;4660;41.768;26.198;2023-03-03T08:34:06;101063.47;;;8.84;100.00
9249;BME280;4660;41.768;26.198;2023-03-03T08:36:33;101071.06;;;9.01;100.00
9249;BME280;4660;41.768;26.198;2023-03-03T08:39:00;101069.59;;;8.97;100.00
9249;BME280;4660;41.768;26.198;2023-03-03T08:41:26;101060.19;;;8.92;100.00
9249;BME280;4660;41.768;26.198;2023-03-03T08:43:53;101070.53;;;9.30;100.00
9249;BME280;4660;41.768;26.198;2023-03-03T08:46:19;101062.22;;;9.44;100.00
9249;BME280;4660;41.768;26.198;2023-03-03T08:48:46;101056.91;;;9.22;100.00
9249;BME280;4660;41.768;26.198;2023-03-03T08:51:13;101055.78;;;9.24;100.00
9249;BME280;4660;41.768;26.198;2023-03-03T08:53:39;101059.31;;;9.36;100.00
9249;BME280;4660;41.768;26.198;2023-03-03T08:56:08;101060.75;;;9.40;100.00
9249;BME280;4660;41.768;26.198;2023-03-03T08:58:37;101057.03;;;9.63;100.00
9249;BME280;4660;41.768;26.198;2023-03-03T09:01:09;101046.03;;;9.67;100.00
9249;BME280;4660;41.768;26.198;2023-03-03T09:03:36;101056.28;;;9.73;100.00
9249;BME280;4660;41.768;26.198;2023-03-03T09:06:07;101035.53;;;9.63;100.00
9249;BME280;4660;41.768;26.198;2023-03-03T09:08:37;101004.06;;;9.54;100.00
9249;BME280;4660;41.768;26.198;2023-03-03T09:11:23;101058.91;;;9.84;100.00
9249;BME280;4660;41.768;26.198;2023-03-03T09:14:19;101042.78;;;9.84;100.00
9249;BME280;4660;41.768;26.198;2023-03-03T09:16:54;101044.03;;;9.80;100.00
9249;BME280;4660;41.768;26.198;2023-03-03T09:19:31;101054.50;;;9.94;100.00
9249;BME280;4660;41.768;26.198;2023-03-03T09:22:17;101057.69;;;9.88;100.00
9249;BME280;4660;41.768;26.198;2023-03-03T09:24:46;101054.59;;;9.92;100.00
9249;BME280;4660;41.768;26.198;2023-03-03T09:27:28;101063.09;;;9.77;100.00
9249;BME280;4660;41.768;26.198;2023-03-03T09:30:20;101031.47;;;9.80;100.00
9249;BME280;4660;41.768;26.198;2023-03-03T09:32:52;101057.75;;;9.98;100.00
9249;BME280;4660;41.768;26.198;2023-03-03T09:35:37;101064.72;;;10.21;100.00
9249;BME280;4660;41.768;26.198;2023-03-03T09:38:32;101028.63;;;9.82;100.00
9249;BME280;4660;41.768;26.198;2023-03-03T09:47:02;101046.50;;;10.04;100.00
9249;BME280;4660;41.768;26.198;2023-03-03T10:09:09;101030.69;;;9.89;100.00
9249;BME280;4660;41.768;26.198;2023-03-03T10:12:04;101012.91;;;9.98;100.00
9249;BME280;4660;41.768;26.198;2023-03-03T10:21:18;101005.31;;;10.03;100.00
9249;BME280;4660;41.768;26.198;2023-03-03T10:29:30;101008.19;;;10.11;100.00
9249;BME280;4660;41.768;26.198;2023-03-03T10:38:23;101005.69;;;10.31;100.00
9249;BME280;4660;41.768;26.198;2023-03-03T10:44:22;100988.47;;;10.22;100.00
9249;BME280;4660;41.768;26.198;2023-03-03T11:02:02;100991.75;;;10.26;100.00
9249;BME280;4660;41.768;26.198;2023-03-03T11:19:58;100976.97;;;9.57;100.00
9249;BME280;4660;41.768;26.198;2023-03-03T11:22:51;100955.38;;;9.80;100.00
9249;BME280;4660;41.768;26.198;2023-03-03T11:25:49;100971.38;;;10.02;100.00
9249;BME280;4660;41.768;26.198;2023-03-03T11:31:46;100964.16;;;10.03;100.00
9249;BME280;4660;41.768;26.198;2023-03-03T11:37:21;100957.78;;;9.83;100.00
9249;BME280;4660;41.768;26.198;2023-03-03T11:43:37;100962.50;;;10.32;100.00
9249;BME280;4660;41.768;26.198;2023-03-03T11:46:19;100957.13;;;10.32;100.00
9249;BME280;4660;41.768;26.198;2023-03-03T11:54:22;100952.13;;;10.07;100.00
9249;BME280;4660;41.768;26.198;2023-03-03T11:57:04;100944.19;;;10.05;100.00
9249;BME280;4660;41.768;26.198;2023-03-03T12:12:23;100944.53;;;10.12;100.00
9249;BME280;4660;41.768;26.198;2023-03-03T12:30:19;100944.19;;;10.05;100.00
9249;BME280;4660;41.768;26.198;2023-03-03T12:47:55;100944.53;;;9.91;100.00
9249;BME280;4660;41.768;26.198;2023-03-03T12:50:51;100936.22;;;9.73;100.00
9249;BME280;4660;41.768;26.198;2023-03-03T12:53:53;100941.91;;;10.22;100.00
9249;BME280;4660;41.768;26.198;2023-03-03T12:56:57;100949.97;;;10.22;100.00
9249;BME280;4660;41.768;26.198;2023-03-03T13:06:06;100896.50;;;9.77;100.00
9249;BME280;4660;41.768;26.198;2023-03-03T13:08:45;100938.63;;;9.97;100.00
9249;BME280;4660;41.768;26.198;2023-03-03T13:11:40;100945.56;;;10.00;100.00
9249;BME280;4660;41.768;26.198;2023-03-03T13:14:34;100912.09;;;9.83;100.00
9249;BME280;4660;41.768;26.198;2023-03-03T13:17:26;100930.78;;;9.84;100.00
9249;BME280;4660;41.768;26.198;2023-03-03T13:20:04;100926.19;;;9.75;100.00
9249;BME280;4660;41.768;26.198;2023-03-03T13:22:45;100920.22;;;9.92;100.00
9249;BME280;4660;41.768;26.198;2023-03-03T13:25:33;100928.84;;;9.86;100.00
9249;BME280;4660;41.768;26.198;2023-03-03T13:28:23;100912.44;;;9.89;100.00
9249;BME280;4660;41.768;26.198;2023-03-03T13:31:04;100883.34;;;9.53;100.00
9249;BME280;4660;41.768;26.198;2023-03-03T13:33:43;100921.09;;;9.93;100.00
9249;BME280;4660;41.768;26.198;2023-03-03T13:36:22;100910.06;;;9.96;100.00
9249;BME280;4660;41.768;26.198;2023-03-03T13:39:01;100888.75;;;10.04;100.00
9249;BME280;4660;41.768;26.198;2023-03-03T13:44:42;100903.53;;;10.19;100.00
9249;BME280;4660;41.768;26.198;2023-03-03T13:55:58;100912.03;;;10.15;100.00
9249;BME280;4660;41.768;26.198;2023-03-03T14:11:10;100901.06;;;10.07;100.00
9249;BME280;4660;41.768;26.198;2023-03-03T14:16:18;100872.94;;;10.11;100.00
9249;BME280;4660;41.768;26.198;2023-03-03T14:18:56;100881.81;;;10.23;100.00
9249;BME280;4660;41.768;26.198;2023-03-03T14:21:37;100879.84;;;10.04;100.00
9249;BME280;4660;41.768;26.198;2023-03-03T14:24:20;100900.66;;;10.11;100.00
9249;BME280;4660;41.768;26.198;2023-03-03T14:27:12;100886.34;;;10.01;100.00
9249;BME280;4660;41.768;26.198;2023-03-03T14:29:49;100907.69;;;10.24;100.00
9249;BME280;4660;41.768;26.198;2023-03-03T14:32:33;100897.97;;;10.11;100.00
9249;BME280;4660;41.768;26.198;2023-03-03T14:35:14;100915.63;;;10.04;100.00
9249;BME280;4660;41.768;26.198;2023-03-03T14:37:44;100916.28;;;9.97;100.00
9249;BME280;4660;41.768;26.198;2023-03-03T14:40:21;100911.41;;;10.11;100.00
9249;BME280;4660;41.768;26.198;2023-03-03T14:42:56;100902.91;;;10.06;100.00
9249;BME280;4660;41.768;26.198;2023-03-03T14:45:39;100901.47;;;10.23;100.00
9249;BME280;4660;41.768;26.198;2023-03-03T14:48:26;100911.16;;;10.14;100.00
9249;BME280;4660;41.768;26.198;2023-03-03T14:50:59;100877.88;;;9.85;100.00
9249;BME280;4660;41.768;26.198;2023-03-03T14:53:44;100913.41;;;10.09;100.00
9249;BME280;4660;41.768;26.198;2023-03-03T14:56:32;100917.84;;;9.99;100.00
9249;BME280;4660;41.768;26.198;2023-03-03T14:59:22;100880.00;;;9.60;100.00
9249;BME280;4660;41.768;26.198;2023-03-03T15:02:30;100891.59;;;9.82;100.00
9249;BME280;4660;41.768;26.198;2023-03-03T15:05:19;100908.44;;;9.84;100.00
9249;BME280;4660;41.768;26.198;2023-03-03T15:07:49;100909.50;;;9.72;100.00
9249;BME280;4660;41.768;26.198;2023-03-03T15:10:33;100872.75;;;9.51;100.00
9249;BME280;4660;41.768;26.198;2023-03-03T15:13:33;100907.78;;;9.71;100.00
9249;BME280;4660;41.768;26.198;2023-03-03T15:16:21;100884.84;;;9.46;100.00
9249;BME280;4660;41.768;26.198;2023-03-03T15:18:59;100896.03;;;9.30;100.00
9249;BME280;4660;41.768;26.198;2023-03-03T15:21:44;100912.50;;;9.25;100.00
9249;BME280;4660;41.768;26.198;2023-03-03T15:24:38;100914.72;;;9.20;100.00
9249;BME280;4660;41.768;26.198;2023-03-03T15:27:38;100911.63;;;9.36;100.00
9249;BME280;4660;41.768;26.198;2023-03-03T15:30:31;100906.28;;;9.25;100.00
9249;BME280;4660;41.768;26.198;2023-03-03T15:36:33;100928.53;;;9.16;100.00
9249;BME280;4660;41.768;26.198;2023-03-03T15:42:17;100924.56;;;8.99;100.00
9249;BME280;4660;41.768;26.198;2023-03-03T15:48:50;100914.50;;;9.23;100.00
9249;BME280;4660;41.768;26.198;2023-03-03T16:03:25;100939.97;;;9.29;100.00
9249;BME280;4660;41.768;26.198;2023-03-03T16:06:26;100948.28;;;9.26;100.00
9249;BME280;4660;41.768;26.198;2023-03-03T16:20:34;100942.81;;;9.16;100.00
9249;BME280;4660;41.768;26.198;2023-03-03T16:37:38;100945.69;;;8.70;100.00
9249;BME280;4660;41.768;26.198;2023-03-03T16:40:20;100960.81;;;8.71;100.00
9249;BME280;4660;41.768;26.198;2023-03-03T16:42:58;100971.41;;;8.95;100.00
9249;BME280;4660;41.768;26.198;2023-03-03T16:45:38;100969.31;;;8.98;100.00
9249;BME280;4660;41.768;26.198;2023-03-03T16:48:44;100979.06;;;9.10;100.00
9249;BME280;4660;41.768;26.198;2023-03-03T17:00:33;100967.66;;;8.86;100.00
9249;BME280;4660;41.768;26.198;2023-03-03T17:06:05;100997.38;;;9.05;100.00
9249;BME280;4660;41.768;26.198;2023-03-03T17:09:01;101005.63;;;9.14;100.00
9249;BME280;4660;41.768;26.198;2023-03-03T17:34:19;101015.59;;;8.79;100.00
9249;BME280;4660;41.768;26.198;2023-03-03T17:37:13;101025.69;;;8.87;100.00
9249;BME280;4660;41.768;26.198;2023-03-03T17:40:04;101016.06;;;8.73;100.00
9249;BME280;4660;41.768;26.198;2023-03-03T17:46:13;101028.72;;;8.82;100.00
9249;BME280;4660;41.768;26.198;2023-03-03T18:32:01;101051.78;;;8.51;100.00
9249;BME280;4660;41.768;26.198;2023-03-03T18:48:20;100989.75;;;8.21;100.00
9249;BME280;4660;41.768;26.198;2023-03-03T19:02:28;101075.06;;;8.51;100.00
9249;BME280;4660;41.768;26.198;2023-03-03T19:05:45;101075.69;;;8.66;100.00
9249;BME280;4660;41.768;26.198;2023-03-03T19:16:10;100946.59;;;7.90;100.00
9249;BME280;4660;41.768;26.198;2023-03-03T19:19:00;101069.19;;;8.57;100.00
9249;BME280;4660;41.768;26.198;2023-03-03T19:24:27;101005.81;;;7.98;100.00
9249;BME280;4660;41.768;26.198;2023-03-03T19:46:50;101095.63;;;8.39;100.00
9249;BME280;4660;41.768;26.198;2023-03-03T19:52:48;101045.19;;;8.09;100.00
9249;BME280;4660;41.768;26.198;2023-03-03T19:56:16;101080.91;;;8.21;100.00
9249;BME280;4660;41.768;26.198;2023-03-03T20:10:37;101070.38;;;8.07;100.00